createdAt,value
2023-05-18T00:01:02.805Z,100
2023-05-18T00:06:00.925Z,100
2023-05-18T00:10:58.980Z,100
2023-05-18T00:15:57.100Z,100
2023-05-18T00:20:55.094Z,100
2023-05-18T00:25:53.573Z,100
2023-05-18T00:30:51.858Z,100
2023-05-18T00:35:50.626Z,100
2023-05-18T00:40:49.004Z,100
2023-05-18T00:45:47.192Z,100
2023-05-18T00:50:45.510Z,100
2023-05-18T00:55:43.498Z,100
2023-05-18T01:00:41.828Z,100
2023-05-18T01:05:40.094Z,100
2023-05-18T01:10:38.080Z,100
2023-05-18T01:15:36.296Z,100
2023-05-18T01:20:34.488Z,100
2023-05-18T01:25:32.571Z,100
2023-05-18T01:30:30.632Z,100
2023-05-18T01:35:28.903Z,100
2023-05-18T01:40:26.782Z,100
2023-05-18T01:45:24.822Z,100
2023-05-18T01:50:23.020Z,100
2023-05-18T01:55:21.960Z,100
2023-05-18T02:00:20.048Z,100
2023-05-18T02:05:18.194Z,100
2023-05-18T02:10:16.351Z,100
2023-05-18T02:15:14.382Z,100
2023-05-18T02:20:12.572Z,100
2023-05-18T02:25:10.664Z,100
2023-05-18T02:30:08.737Z,100
2023-05-18T02:35:06.836Z,100
2023-05-18T02:40:05.079Z,100
2023-05-18T02:45:02.936Z,100
2023-05-18T02:50:01.129Z,100
2023-05-18T02:54:59.177Z,100
2023-05-18T02:59:57.207Z,100
2023-05-18T03:04:55.244Z,100
2023-05-18T03:09:53.903Z,100
2023-05-18T03:14:52.173Z,100
2023-05-18T03:19:50.672Z,100
2023-05-18T03:24:48.680Z,100
2023-05-18T03:29:47.024Z,100
2023-05-18T03:34:45.351Z,100
2023-05-18T03:39:43.718Z,100
2023-05-18T03:44:42.365Z,100
2023-05-18T03:49:40.715Z,100
2023-05-18T03:54:39.506Z,100
2023-05-18T03:59:37.767Z,100
2023-05-18T04:04:35.724Z,100
2023-05-18T04:09:34.173Z,100
2023-05-18T04:14:32.467Z,100
2023-05-18T04:19:30.967Z,100
2023-05-18T04:24:29.729Z,100
2023-05-18T04:29:28.886Z,100
2023-05-18T04:34:27.558Z,100
2023-05-18T04:39:26.250Z,100
2023-05-18T04:44:24.067Z,100
2023-05-18T04:49:23.992Z,100
2023-05-18T04:54:23.151Z,100
2023-05-18T04:59:22.075Z,100
2023-05-18T05:04:20.438Z,100
2023-05-18T05:09:18.282Z,100
2023-05-18T05:14:16.195Z,100
2023-05-18T05:19:14.017Z,100
2023-05-18T05:24:15.494Z,100
2023-05-18T05:29:12.945Z,100
2023-05-18T05:34:11.576Z,100
2023-05-18T05:39:09.591Z,100
2023-05-18T05:44:07.079Z,100
2023-05-18T05:49:04.790Z,100
2023-05-18T05:54:02.926Z,100
2023-05-18T05:59:01.376Z,100
2023-05-18T06:04:00.099Z,100
2023-05-18T06:08:58.504Z,100
2023-05-18T06:13:56.512Z,100
2023-05-18T06:18:54.868Z,100
2023-05-18T06:23:53.344Z,100
2023-05-18T06:28:51.600Z,100
2023-05-18T06:33:49.650Z,100
2023-05-18T06:38:48.056Z,100
2023-05-18T06:43:46.625Z,100
2023-05-18T06:48:44.486Z,100
2023-05-18T06:53:42.665Z,100
2023-05-18T06:58:41.345Z,100
2023-05-18T07:03:39.910Z,100
2023-05-18T07:08:38.435Z,100
2023-05-18T07:13:37.019Z,100
2023-05-18T07:18:35.316Z,100
2023-05-18T07:23:32.965Z,100
2023-05-18T07:28:30.800Z,100
2023-05-18T07:33:29.272Z,100
2023-05-18T07:38:27.256Z,100
2023-05-18T07:43:29.170Z,100
2023-05-18T07:48:27.120Z,100
2023-05-18T07:53:25.819Z,100
2023-05-18T07:58:24.317Z,100
2023-05-18T08:03:22.067Z,100
2023-05-18T08:08:18.967Z,100
2023-05-18T08:13:16.310Z,100
2023-05-18T08:18:14.454Z,100
2023-05-18T08:23:12.497Z,100
2023-05-18T08:28:10.660Z,100
2023-05-18T08:33:08.721Z,100
2023-05-18T08:38:06.734Z,100
2023-05-18T08:43:05.410Z,100
2023-05-18T08:48:03.617Z,100
2023-05-18T08:53:02.590Z,100
2023-05-18T08:58:01.034Z,100
2023-05-18T09:02:59.339Z,100
2023-05-18T09:07:57.083Z,100
2023-05-18T09:12:55.394Z,100
2023-05-18T09:17:53.461Z,100
2023-05-18T09:22:51.857Z,100
2023-05-18T09:27:54.335Z,100
2023-05-18T09:32:51.771Z,100
2023-05-18T09:37:49.983Z,100
2023-05-18T09:42:48.817Z,100
2023-05-18T09:47:47.492Z,100
2023-05-18T09:52:46.898Z,100
2023-05-18T09:57:47.545Z,100
2023-05-18T10:02:48.289Z,100
2023-05-18T10:07:48.040Z,81.8
2023-05-18T10:12:47.770Z,68.9
2023-05-18T10:17:46.599Z,64.1
2023-05-18T10:22:44.717Z,66.3
2023-05-18T10:27:42.816Z,61.9
2023-05-18T10:32:41.378Z,61.6
2023-05-18T10:37:38.524Z,62.4
2023-05-18T10:42:35.727Z,68.4
2023-05-18T10:47:32.171Z,76
2023-05-18T10:52:28.473Z,88.8
2023-05-18T10:57:25.449Z,92.4
2023-05-18T11:02:22.355Z,100
2023-05-18T11:07:19.333Z,100
2023-05-18T11:12:16.664Z,100
2023-05-18T11:17:14.101Z,100
2023-05-18T11:22:11.560Z,100
2023-05-18T11:27:09.061Z,100
2023-05-18T11:32:08.275Z,100
2023-05-18T11:37:04.910Z,100
2023-05-18T11:42:02.881Z,100
2023-05-18T11:47:01.048Z,100
2023-05-18T11:51:59.151Z,100
2023-05-18T11:56:56.828Z,100
2023-05-18T12:01:55.284Z,100
2023-05-18T12:06:53.235Z,100
2023-05-18T12:11:51.448Z,100
2023-05-18T12:16:49.894Z,100
2023-05-18T12:21:47.633Z,100
2023-05-18T12:26:45.365Z,100
2023-05-18T12:31:43.688Z,100
2023-05-18T12:36:41.850Z,100
2023-05-18T12:41:40.231Z,100
2023-05-18T12:46:38.688Z,100
2023-05-18T12:51:37.347Z,100
2023-05-18T12:56:35.836Z,100
2023-05-18T13:01:34.625Z,100
2023-05-18T13:06:33.029Z,100
2023-05-18T13:11:31.453Z,100
2023-05-18T13:16:30.452Z,100
2023-05-18T13:21:29.038Z,100
2023-05-18T13:26:27.677Z,100
2023-05-18T13:31:25.595Z,100
2023-05-18T13:36:23.392Z,100
2023-05-18T13:41:21.287Z,100
2023-05-18T13:46:19.378Z,100
2023-05-18T13:51:17.265Z,100
2023-05-18T13:56:14.579Z,100
2023-05-18T14:01:13.674Z,100
2023-05-18T14:06:10.346Z,100
2023-05-18T14:11:08.655Z,100
2023-05-18T14:16:06.914Z,100
2023-05-18T14:21:08.910Z,100
2023-05-18T14:26:06.647Z,100
2023-05-18T14:31:05.131Z,100
2023-05-18T14:36:03.364Z,100
2023-05-18T14:41:01.222Z,100
2023-05-18T14:46:07.991Z,100
2023-05-18T14:50:57.187Z,100
2023-05-18T14:55:55.714Z,100
2023-05-18T15:00:53.912Z,100
2023-05-18T15:05:52.616Z,100
2023-05-18T15:10:50.598Z,100
2023-05-18T15:15:48.358Z,100
2023-05-18T15:20:46.321Z,100
2023-05-18T15:25:44.567Z,100
2023-05-18T15:30:42.830Z,100
2023-05-18T15:35:41.022Z,100
2023-05-18T15:40:39.243Z,100
2023-05-18T15:45:37.255Z,100
2023-05-18T15:50:35.561Z,100
2023-05-18T15:55:33.352Z,100
2023-05-18T16:00:31.078Z,100
2023-05-18T16:05:32.881Z,100
2023-05-18T16:10:30.464Z,100
2023-05-18T16:15:28.152Z,100
2023-05-18T16:20:26.624Z,100
2023-05-18T16:25:25.039Z,100
2023-05-18T16:30:23.180Z,100
2023-05-18T16:35:21.307Z,100
2023-05-18T16:40:19.424Z,100
2023-05-18T16:45:17.654Z,100
2023-05-18T16:50:15.590Z,100
2023-05-18T16:55:13.704Z,100
2023-05-18T17:00:11.414Z,100
2023-05-18T17:05:09.007Z,100
2023-05-18T17:10:07.102Z,100
2023-05-18T17:15:05.987Z,100
2023-05-18T17:20:04.230Z,100
2023-05-18T17:25:02.013Z,100
2023-05-18T17:30:00.503Z,100
2023-05-18T17:34:58.894Z,100
2023-05-18T17:39:57.116Z,100
2023-05-18T17:44:55.319Z,100
2023-05-18T17:49:54.711Z,100
2023-05-18T17:54:52.469Z,100
2023-05-18T17:59:50.478Z,100
2023-05-18T18:04:48.478Z,100
2023-05-18T18:09:46.445Z,100
2023-05-18T18:14:44.518Z,100
2023-05-18T18:19:42.429Z,100
2023-05-18T18:24:40.941Z,100
2023-05-18T18:29:38.960Z,100
2023-05-18T18:34:37.104Z,100
2023-05-18T18:39:35.003Z,100
2023-05-18T18:44:33.269Z,100
2023-05-18T18:49:31.524Z,100
2023-05-18T18:54:29.873Z,100
2023-05-18T18:59:28.224Z,100
2023-05-18T19:04:26.173Z,100
2023-05-18T19:09:24.445Z,100
2023-05-18T19:14:22.549Z,100
2023-05-18T19:19:20.708Z,100
2023-05-18T19:24:18.477Z,100
2023-05-18T19:29:16.480Z,100
2023-05-18T19:34:14.410Z,100
2023-05-18T19:39:12.614Z,100
2023-05-18T19:44:10.804Z,100
2023-05-18T19:49:09.321Z,100
2023-05-18T19:54:08.655Z,100
2023-05-18T19:59:06.609Z,100
2023-05-18T20:04:04.616Z,100
2023-05-18T20:09:02.650Z,100
2023-05-18T20:14:00.787Z,100
2023-05-18T20:18:59.001Z,100
2023-05-18T20:23:56.989Z,100
2023-05-18T20:28:54.803Z,100
2023-05-18T20:33:52.848Z,100
2023-05-18T20:38:51.127Z,100
2023-05-18T20:43:49.177Z,100
2023-05-18T20:48:47.269Z,100
2023-05-18T20:53:45.209Z,100
2023-05-18T20:58:46.861Z,100
2023-05-18T21:03:44.065Z,100
2023-05-18T21:08:41.993Z,100
2023-05-18T21:13:40.217Z,100
2023-05-18T21:18:38.262Z,100
2023-05-18T21:23:36.258Z,100
2023-05-18T21:28:34.237Z,100
2023-05-18T21:33:32.342Z,100
2023-05-18T21:38:30.544Z,100
2023-05-18T21:43:28.521Z,100
2023-05-18T21:48:26.697Z,100
2023-05-18T21:53:25.308Z,100
2023-05-18T21:58:23.646Z,100
2023-05-18T22:03:21.885Z,100
2023-05-18T22:08:23.606Z,100
2023-05-18T22:13:21.457Z,100
2023-05-18T22:18:19.823Z,100
2023-05-18T22:23:17.913Z,100
2023-05-18T22:28:16.265Z,100
2023-05-18T22:33:14.372Z,100
2023-05-18T22:38:12.711Z,100
2023-05-18T22:43:10.838Z,100
2023-05-18T22:48:08.912Z,100
2023-05-18T22:53:07.353Z,100
2023-05-18T22:58:05.407Z,100
2023-05-18T23:03:03.502Z,100
2023-05-18T23:08:01.742Z,100
2023-05-18T23:12:59.831Z,100
2023-05-18T23:17:57.938Z,100
2023-05-18T23:22:56.231Z,100
2023-05-18T23:27:54.264Z,100
2023-05-18T23:32:52.538Z,100
2023-05-18T23:37:50.317Z,100
2023-05-18T23:42:48.330Z,100
2023-05-18T23:47:46.371Z,100
2023-05-18T23:52:44.784Z,100
2023-05-18T23:57:43.089Z,100
